sensor_id;sensor_type;location;lat;lon;timestamp;P1;durP1;ratioP1;P2;durP2;ratioP2
40953;SDS011;26686;50.130;8.710;2022-12-11T00:04:16;22.95;;;19.48;;
40953;SDS011;26686;50.130;8.710;2022-12-11T00:09:19;23.92;;;19.30;;
40953;SDS011;26686;50.130;8.710;2022-12-11T00:14:21;23.30;;;19.15;;
40953;SDS011;26686;50.130;8.710;2022-12-11T00:19:22;21.88;;;18.60;;
40953;SDS011;26686;50.130;8.710;2022-12-11T00:24:24;21.38;;;18.05;;
40953;SDS011;26686;50.130;8.710;2022-12-11T00:29:25;23.67;;;19.30;;
40953;SDS011;26686;50.130;8.710;2022-12-11T00:34:26;22.90;;;19.13;;
40953;SDS011;26686;50.130;8.710;2022-12-11T00:39:28;25.15;;;19.52;;
40953;SDS011;26686;50.130;8.710;2022-12-11T00:44:29;27.52;;;20.50;;
40953;SDS011;26686;50.130;8.710;2022-12-11T00:49:31;25.77;;;20.15;;
40953;SDS011;26686;50.130;8.710;2022-12-11T00:54:32;25.10;;;20.02;;
40953;SDS011;26686;50.130;8.710;2022-12-11T00:59:34;23.77;;;20.00;;
40953;SDS011;26686;50.130;8.710;2022-12-11T01:04:35;22.60;;;19.30;;
40953;SDS011;26686;50.130;8.710;2022-12-11T01:09:37;24.55;;;19.88;;
40953;SDS011;26686;50.130;8.710;2022-12-11T01:14:57;24.20;;;19.52;;
40953;SDS011;26686;50.130;8.710;2022-12-11T01:19:58;25.50;;;20.10;;
40953;SDS011;26686;50.130;8.710;2022-12-11T01:25:00;25.50;;;19.77;;
40953;SDS011;26686;50.130;8.710;2022-12-11T01:30:03;26.08;;;20.40;;
40953;SDS011;26686;50.130;8.710;2022-12-11T01:35:06;25.75;;;20.65;;
40953;SDS011;26686;50.130;8.710;2022-12-11T01:40:09;25.40;;;20.55;;
40953;SDS011;26686;50.130;8.710;2022-12-11T01:50:21;24.88;;;20.35;;
40953;SDS011;26686;50.130;8.710;2022-12-11T01:55:23;27.08;;;20.38;;
40953;SDS011;26686;50.130;8.710;2022-12-11T02:00:24;24.95;;;19.60;;
40953;SDS011;26686;50.130;8.710;2022-12-11T02:05:26;24.45;;;20.20;;
40953;SDS011;26686;50.130;8.710;2022-12-11T02:15:51;27.45;;;20.73;;
40953;SDS011;26686;50.130;8.710;2022-12-11T02:21:07;24.98;;;20.35;;
40953;SDS011;26686;50.130;8.710;2022-12-11T02:26:46;25.33;;;20.80;;
40953;SDS011;26686;50.130;8.710;2022-12-11T02:32:11;24.63;;;21.15;;
40953;SDS011;26686;50.130;8.710;2022-12-11T02:37:20;22.48;;;19.35;;
40953;SDS011;26686;50.130;8.710;2022-12-11T02:42:26;25.45;;;19.52;;
40953;SDS011;26686;50.130;8.710;2022-12-11T02:47:31;26.30;;;20.17;;
40953;SDS011;26686;50.130;8.710;2022-12-11T02:52:33;26.30;;;20.80;;
40953;SDS011;26686;50.130;8.710;2022-12-11T03:02:50;29.48;;;23.05;;
40953;SDS011;26686;50.130;8.710;2022-12-11T03:07:51;28.50;;;22.60;;
40953;SDS011;26686;50.130;8.710;2022-12-11T03:12:53;26.58;;;21.85;;
40953;SDS011;26686;50.130;8.710;2022-12-11T03:23:27;28.27;;;23.52;;
40953;SDS011;26686;50.130;8.710;2022-12-11T03:28:33;24.93;;;21.53;;
40953;SDS011;26686;50.130;8.710;2022-12-11T03:34:00;27.40;;;22.63;;
40953;SDS011;26686;50.130;8.710;2022-12-11T03:39:14;26.40;;;22.05;;
40953;SDS011;26686;50.130;8.710;2022-12-11T03:44:21;27.00;;;21.95;;
40953;SDS011;26686;50.130;8.710;2022-12-11T03:49:28;25.55;;;21.52;;
40953;SDS011;26686;50.130;8.710;2022-12-11T03:54:34;26.20;;;21.65;;
40953;SDS011;26686;50.130;8.710;2022-12-11T03:59:37;30.92;;;22.73;;
40953;SDS011;26686;50.130;8.710;2022-12-11T04:04:39;25.02;;;20.17;;
40953;SDS011;26686;50.130;8.710;2022-12-11T04:09:42;24.50;;;19.95;;
40953;SDS011;26686;50.130;8.710;2022-12-11T04:14:43;26.05;;;20.10;;
40953;SDS011;26686;50.130;8.710;2022-12-11T04:20:04;26.08;;;21.20;;
40953;SDS011;26686;50.130;8.710;2022-12-11T04:25:24;27.88;;;21.13;;
40953;SDS011;26686;50.130;8.710;2022-12-11T04:30:25;29.95;;;20.77;;
40953;SDS011;26686;50.130;8.710;2022-12-11T04:35:34;26.73;;;20.77;;
40953;SDS011;26686;50.130;8.710;2022-12-11T04:40:36;26.13;;;21.65;;
40953;SDS011;26686;50.130;8.710;2022-12-11T04:45:37;28.83;;;21.90;;
40953;SDS011;26686;50.130;8.710;2022-12-11T04:50:39;28.35;;;22.33;;
40953;SDS011;26686;50.130;8.710;2022-12-11T04:55:40;24.00;;;20.35;;
40953;SDS011;26686;50.130;8.710;2022-12-11T05:00:41;25.30;;;20.27;;
40953;SDS011;26686;50.130;8.710;2022-12-11T05:05:46;26.80;;;21.20;;
40953;SDS011;26686;50.130;8.710;2022-12-11T05:10:57;27.77;;;21.95;;
40953;SDS011;26686;50.130;8.710;2022-12-11T05:16:04;25.67;;;21.15;;
40953;SDS011;26686;50.130;8.710;2022-12-11T05:21:07;27.45;;;21.10;;
40953;SDS011;26686;50.130;8.710;2022-12-11T05:26:15;27.30;;;22.17;;
40953;SDS011;26686;50.130;8.710;2022-12-11T05:31:19;28.23;;;22.37;;
40953;SDS011;26686;50.130;8.710;2022-12-11T05:36:27;27.67;;;22.45;;
40953;SDS011;26686;50.130;8.710;2022-12-11T05:41:31;26.75;;;22.52;;
40953;SDS011;26686;50.130;8.710;2022-12-11T05:46:33;30.95;;;23.65;;
40953;SDS011;26686;50.130;8.710;2022-12-11T05:51:36;27.25;;;23.50;;
40953;SDS011;26686;50.130;8.710;2022-12-11T05:56:39;28.38;;;22.52;;
40953;SDS011;26686;50.130;8.710;2022-12-11T06:01:41;28.17;;;22.27;;
40953;SDS011;26686;50.130;8.710;2022-12-11T06:06:43;28.27;;;22.42;;
40953;SDS011;26686;50.130;8.710;2022-12-11T06:11:45;31.08;;;22.73;;
40953;SDS011;26686;50.130;8.710;2022-12-11T06:16:46;27.80;;;22.30;;
40953;SDS011;26686;50.130;8.710;2022-12-11T06:21:47;29.88;;;23.50;;
40953;SDS011;26686;50.130;8.710;2022-12-11T06:26:49;27.67;;;22.00;;
40953;SDS011;26686;50.130;8.710;2022-12-11T06:31:50;29.38;;;23.30;;
40953;SDS011;26686;50.130;8.710;2022-12-11T06:36:52;29.38;;;21.92;;
40953;SDS011;26686;50.130;8.710;2022-12-11T06:41:53;29.65;;;23.17;;
40953;SDS011;26686;50.130;8.710;2022-12-11T06:46:55;31.70;;;23.92;;
40953;SDS011;26686;50.130;8.710;2022-12-11T06:51:56;27.55;;;23.17;;
40953;SDS011;26686;50.130;8.710;2022-12-11T06:56:58;31.35;;;24.42;;
40953;SDS011;26686;50.130;8.710;2022-12-11T07:01:59;29.65;;;23.38;;
40953;SDS011;26686;50.130;8.710;2022-12-11T07:07:01;31.55;;;23.98;;
40953;SDS011;26686;50.130;8.710;2022-12-11T07:12:03;29.45;;;23.45;;
40953;SDS011;26686;50.130;8.710;2022-12-11T07:17:05;27.17;;;22.75;;
40953;SDS011;26686;50.130;8.710;2022-12-11T07:22:06;28.80;;;23.17;;
40953;SDS011;26686;50.130;8.710;2022-12-11T07:27:08;35.10;;;26.00;;
40953;SDS011;26686;50.130;8.710;2022-12-11T07:32:09;31.00;;;23.48;;
40953;SDS011;26686;50.130;8.710;2022-12-11T07:37:11;34.20;;;26.05;;
40953;SDS011;26686;50.130;8.710;2022-12-11T07:42:12;28.25;;;23.13;;
40953;SDS011;26686;50.130;8.710;2022-12-11T07:47:13;32.65;;;24.48;;
40953;SDS011;26686;50.130;8.710;2022-12-11T07:52:15;30.90;;;24.48;;
40953;SDS011;26686;50.130;8.710;2022-12-11T07:57:16;27.98;;;22.88;;
40953;SDS011;26686;50.130;8.710;2022-12-11T08:02:18;31.65;;;24.55;;
40953;SDS011;26686;50.130;8.710;2022-12-11T08:07:19;33.30;;;24.85;;
40953;SDS011;26686;50.130;8.710;2022-12-11T08:12:20;31.13;;;23.50;;
40953;SDS011;26686;50.130;8.710;2022-12-11T08:17:22;32.67;;;25.60;;
40953;SDS011;26686;50.130;8.710;2022-12-11T08:22:31;32.58;;;25.55;;
40953;SDS011;26686;50.130;8.710;2022-12-11T08:27:32;35.58;;;28.67;;
40953;SDS011;26686;50.130;8.710;2022-12-11T08:32:34;35.63;;;25.73;;
40953;SDS011;26686;50.130;8.710;2022-12-11T08:37:35;34.05;;;25.77;;
40953;SDS011;26686;50.130;8.710;2022-12-11T08:42:37;34.42;;;26.30;;
40953;SDS011;26686;50.130;8.710;2022-12-11T08:47:38;33.83;;;25.15;;
40953;SDS011;26686;50.130;8.710;2022-12-11T08:52:40;32.88;;;27.10;;
40953;SDS011;26686;50.130;8.710;2022-12-11T08:57:41;38.42;;;27.38;;
40953;SDS011;26686;50.130;8.710;2022-12-11T09:02:43;32.63;;;26.63;;
40953;SDS011;26686;50.130;8.710;2022-12-11T09:07:44;34.33;;;28.27;;
40953;SDS011;26686;50.130;8.710;2022-12-11T09:12:46;31.13;;;24.80;;
40953;SDS011;26686;50.130;8.710;2022-12-11T09:17:47;35.03;;;27.42;;
40953;SDS011;26686;50.130;8.710;2022-12-11T09:22:49;32.55;;;25.63;;
40953;SDS011;26686;50.130;8.710;2022-12-11T09:27:50;32.97;;;26.63;;
40953;SDS011;26686;50.130;8.710;2022-12-11T09:32:55;34.28;;;25.45;;
40953;SDS011;26686;50.130;8.710;2022-12-11T09:37:56;31.63;;;24.65;;
40953;SDS011;26686;50.130;8.710;2022-12-11T09:43:02;32.60;;;25.80;;
40953;SDS011;26686;50.130;8.710;2022-12-11T09:48:09;32.60;;;25.45;;
40953;SDS011;26686;50.130;8.710;2022-12-11T09:53:32;34.47;;;26.25;;
40953;SDS011;26686;50.130;8.710;2022-12-11T10:09:24;32.83;;;25.92;;
40953;SDS011;26686;50.130;8.710;2022-12-11T10:15:05;36.03;;;28.60;;
40953;SDS011;26686;50.130;8.710;2022-12-11T10:20:29;34.65;;;28.50;;
40953;SDS011;26686;50.130;8.710;2022-12-11T10:31:09;34.58;;;26.52;;
40953;SDS011;26686;50.130;8.710;2022-12-11T10:36:18;32.83;;;26.33;;
40953;SDS011;26686;50.130;8.710;2022-12-11T10:41:28;32.83;;;25.92;;
40953;SDS011;26686;50.130;8.710;2022-12-11T10:46:36;35.17;;;26.42;;
40953;SDS011;26686;50.130;8.710;2022-12-11T10:51:38;37.55;;;27.65;;
40953;SDS011;26686;50.130;8.710;2022-12-11T10:56:40;36.25;;;26.35;;
40953;SDS011;26686;50.130;8.710;2022-12-11T11:01:46;38.88;;;28.98;;
40953;SDS011;26686;50.130;8.710;2022-12-11T11:06:47;38.70;;;28.25;;
40953;SDS011;26686;50.130;8.710;2022-12-11T11:11:50;36.58;;;28.85;;
40953;SDS011;26686;50.130;8.710;2022-12-11T11:16:54;41.22;;;29.50;;
40953;SDS011;26686;50.130;8.710;2022-12-11T11:21:58;40.55;;;29.30;;
40953;SDS011;26686;50.130;8.710;2022-12-11T11:27:10;39.28;;;28.63;;
40953;SDS011;26686;50.130;8.710;2022-12-11T11:32:31;34.80;;;24.52;;
40953;SDS011;26686;50.130;8.710;2022-12-11T11:37:37;29.95;;;21.98;;
40953;SDS011;26686;50.130;8.710;2022-12-11T11:42:52;31.08;;;23.02;;
40953;SDS011;26686;50.130;8.710;2022-12-11T11:48:03;31.13;;;22.40;;
40953;SDS011;26686;50.130;8.710;2022-12-11T11:53:31;29.73;;;23.25;;
40953;SDS011;26686;50.130;8.710;2022-12-11T12:03:45;27.02;;;22.45;;
40953;SDS011;26686;50.130;8.710;2022-12-11T12:25:02;28.52;;;20.25;;
40953;SDS011;26686;50.130;8.710;2022-12-11T12:30:16;29.73;;;22.40;;
40953;SDS011;26686;50.130;8.710;2022-12-11T12:51:04;21.58;;;16.33;;
40953;SDS011;26686;50.130;8.710;2022-12-11T12:56:06;22.42;;;15.85;;
40953;SDS011;26686;50.130;8.710;2022-12-11T13:06:12;25.98;;;18.83;;
40953;SDS011;26686;50.130;8.710;2022-12-11T13:11:15;25.35;;;18.17;;
40953;SDS011;26686;50.130;8.710;2022-12-11T13:16:22;23.00;;;15.68;;
40953;SDS011;26686;50.130;8.710;2022-12-11T13:26:32;22.83;;;16.40;;
40953;SDS011;26686;50.130;8.710;2022-12-11T13:31:34;23.70;;;15.80;;
40953;SDS011;26686;50.130;8.710;2022-12-11T13:36:38;22.65;;;16.50;;
40953;SDS011;26686;50.130;8.710;2022-12-11T13:41:42;22.15;;;15.60;;
40953;SDS011;26686;50.130;8.710;2022-12-11T13:46:46;21.75;;;15.95;;
40953;SDS011;26686;50.130;8.710;2022-12-11T13:51:51;24.58;;;15.07;;
40953;SDS011;26686;50.130;8.710;2022-12-11T13:57:02;21.50;;;16.27;;
40953;SDS011;26686;50.130;8.710;2022-12-11T14:07:26;20.45;;;15.05;;
40953;SDS011;26686;50.130;8.710;2022-12-11T14:12:29;22.95;;;17.17;;
40953;SDS011;26686;50.130;8.710;2022-12-11T14:17:33;24.05;;;16.67;;
40953;SDS011;26686;50.130;8.710;2022-12-11T14:22:35;23.38;;;16.30;;
40953;SDS011;26686;50.130;8.710;2022-12-11T14:27:45;22.95;;;16.27;;
40953;SDS011;26686;50.130;8.710;2022-12-11T14:32:49;15.30;;;12.00;;
40953;SDS011;26686;50.130;8.710;2022-12-11T14:37:52;17.67;;;12.38;;
40953;SDS011;26686;50.130;8.710;2022-12-11T14:42:55;22.23;;;14.40;;
40953;SDS011;26686;50.130;8.710;2022-12-11T14:48:01;19.20;;;14.50;;
40953;SDS011;26686;50.130;8.710;2022-12-11T14:53:13;22.35;;;15.98;;
40953;SDS011;26686;50.130;8.710;2022-12-11T14:58:21;22.02;;;16.23;;
40953;SDS011;26686;50.130;8.710;2022-12-11T15:03:29;22.17;;;17.20;;
40953;SDS011;26686;50.130;8.710;2022-12-11T15:08:34;21.20;;;15.88;;
40953;SDS011;26686;50.130;8.710;2022-12-11T15:13:38;30.40;;;21.40;;
40953;SDS011;26686;50.130;8.710;2022-12-11T15:18:55;29.17;;;20.48;;
40953;SDS011;26686;50.130;8.710;2022-12-11T15:23:59;30.38;;;20.55;;
40953;SDS011;26686;50.130;8.710;2022-12-11T15:29:19;28.83;;;20.30;;
40953;SDS011;26686;50.130;8.710;2022-12-11T15:39:59;28.00;;;21.08;;
40953;SDS011;26686;50.130;8.710;2022-12-11T15:45:05;31.65;;;23.23;;
40953;SDS011;26686;50.130;8.710;2022-12-11T15:50:19;24.13;;;16.98;;
40953;SDS011;26686;50.130;8.710;2022-12-11T15:55:25;32.28;;;26.52;;
40953;SDS011;26686;50.130;8.710;2022-12-11T16:00:34;35.95;;;30.45;;
40953;SDS011;26686;50.130;8.710;2022-12-11T16:05:35;27.20;;;19.35;;
40953;SDS011;26686;50.130;8.710;2022-12-11T16:10:37;26.30;;;18.27;;
40953;SDS011;26686;50.130;8.710;2022-12-11T16:15:39;30.33;;;23.58;;
40953;SDS011;26686;50.130;8.710;2022-12-11T16:20:44;21.23;;;16.25;;
40953;SDS011;26686;50.130;8.710;2022-12-11T16:25:46;23.83;;;18.50;;
40953;SDS011;26686;50.130;8.710;2022-12-11T16:30:48;24.48;;;18.42;;
40953;SDS011;26686;50.130;8.710;2022-12-11T16:35:49;21.83;;;17.13;;
40953;SDS011;26686;50.130;8.710;2022-12-11T16:41:00;27.02;;;19.52;;
40953;SDS011;26686;50.130;8.710;2022-12-11T16:46:02;27.45;;;20.33;;
40953;SDS011;26686;50.130;8.710;2022-12-11T16:51:04;27.48;;;19.77;;
40953;SDS011;26686;50.130;8.710;2022-12-11T16:56:06;26.15;;;20.58;;
40953;SDS011;26686;50.130;8.710;2022-12-11T17:01:09;27.35;;;20.00;;
40953;SDS011;26686;50.130;8.710;2022-12-11T17:06:15;27.38;;;20.42;;
40953;SDS011;26686;50.130;8.710;2022-12-11T17:11:18;27.25;;;20.20;;
40953;SDS011;26686;50.130;8.710;2022-12-11T17:16:22;26.90;;;20.43;;
40953;SDS011;26686;50.130;8.710;2022-12-11T17:21:26;31.40;;;21.17;;
40953;SDS011;26686;50.130;8.710;2022-12-11T17:26:27;27.45;;;19.95;;
40953;SDS011;26686;50.130;8.710;2022-12-11T17:31:29;29.60;;;21.52;;
40953;SDS011;26686;50.130;8.710;2022-12-11T17:36:30;31.45;;;22.48;;
40953;SDS011;26686;50.130;8.710;2022-12-11T17:41:32;29.23;;;21.38;;
40953;SDS011;26686;50.130;8.710;2022-12-11T17:46:33;29.00;;;23.10;;
40953;SDS011;26686;50.130;8.710;2022-12-11T17:51:35;30.77;;;22.52;;
40953;SDS011;26686;50.130;8.710;2022-12-11T17:56:36;34.67;;;26.40;;
40953;SDS011;26686;50.130;8.710;2022-12-11T18:01:38;37.97;;;27.83;;
40953;SDS011;26686;50.130;8.710;2022-12-11T18:06:39;36.67;;;27.58;;
40953;SDS011;26686;50.130;8.710;2022-12-11T18:11:41;37.95;;;27.38;;
40953;SDS011;26686;50.130;8.710;2022-12-11T18:16:42;33.70;;;26.60;;
40953;SDS011;26686;50.130;8.710;2022-12-11T18:21:44;34.35;;;26.02;;
40953;SDS011;26686;50.130;8.710;2022-12-11T18:26:46;33.15;;;25.42;;
40953;SDS011;26686;50.130;8.710;2022-12-11T18:31:48;34.17;;;27.27;;
40953;SDS011;26686;50.130;8.710;2022-12-11T18:36:50;33.85;;;25.77;;
40953;SDS011;26686;50.130;8.710;2022-12-11T18:41:51;37.03;;;27.13;;
40953;SDS011;26686;50.130;8.710;2022-12-11T18:47:13;35.38;;;25.67;;
40953;SDS011;26686;50.130;8.710;2022-12-11T18:52:14;32.90;;;25.67;;
40953;SDS011;26686;50.130;8.710;2022-12-11T18:57:16;34.17;;;25.42;;
40953;SDS011;26686;50.130;8.710;2022-12-11T19:02:18;33.35;;;25.35;;
40953;SDS011;26686;50.130;8.710;2022-12-11T19:07:20;36.03;;;25.27;;
40953;SDS011;26686;50.130;8.710;2022-12-11T19:12:21;32.70;;;24.08;;
40953;SDS011;26686;50.130;8.710;2022-12-11T19:17:23;30.10;;;23.33;;
40953;SDS011;26686;50.130;8.710;2022-12-11T19:22:24;30.63;;;23.98;;
40953;SDS011;26686;50.130;8.710;2022-12-11T19:27:26;36.15;;;25.80;;
40953;SDS011;26686;50.130;8.710;2022-12-11T19:32:27;32.13;;;25.27;;
40953;SDS011;26686;50.130;8.710;2022-12-11T19:37:36;33.42;;;24.50;;
40953;SDS011;26686;50.130;8.710;2022-12-11T19:42:38;31.35;;;23.73;;
40953;SDS011;26686;50.130;8.710;2022-12-11T19:47:39;29.38;;;23.23;;
40953;SDS011;26686;50.130;8.710;2022-12-11T19:52:41;30.00;;;23.83;;
40953;SDS011;26686;50.130;8.710;2022-12-11T19:57:46;28.05;;;22.90;;
40953;SDS011;26686;50.130;8.710;2022-12-11T20:02:48;29.67;;;22.48;;
40953;SDS011;26686;50.130;8.710;2022-12-11T20:07:50;21.77;;;17.65;;
40953;SDS011;26686;50.130;8.710;2022-12-11T20:12:52;25.23;;;19.35;;
40953;SDS011;26686;50.130;8.710;2022-12-11T20:17:57;21.70;;;16.67;;
40953;SDS011;26686;50.130;8.710;2022-12-11T20:23:00;24.65;;;19.55;;
40953;SDS011;26686;50.130;8.710;2022-12-11T20:28:02;28.70;;;22.45;;
40953;SDS011;26686;50.130;8.710;2022-12-11T20:33:03;32.38;;;23.92;;
40953;SDS011;26686;50.130;8.710;2022-12-11T20:38:04;30.95;;;23.58;;
40953;SDS011;26686;50.130;8.710;2022-12-11T20:43:06;29.92;;;23.80;;
40953;SDS011;26686;50.130;8.710;2022-12-11T20:48:07;34.03;;;23.35;;
40953;SDS011;26686;50.130;8.710;2022-12-11T20:53:10;30.15;;;22.95;;
40953;SDS011;26686;50.130;8.710;2022-12-11T20:58:11;29.40;;;23.13;;
40953;SDS011;26686;50.130;8.710;2022-12-11T21:03:13;26.83;;;22.20;;
40953;SDS011;26686;50.130;8.710;2022-12-11T21:08:15;26.30;;;21.63;;
40953;SDS011;26686;50.130;8.710;2022-12-11T21:13:16;29.73;;;23.02;;
40953;SDS011;26686;50.130;8.710;2022-12-11T21:18:18;25.67;;;20.98;;
40953;SDS011;26686;50.130;8.710;2022-12-11T21:23:19;28.92;;;21.27;;
40953;SDS011;26686;50.130;8.710;2022-12-11T21:28:21;23.13;;;17.92;;
40953;SDS011;26686;50.130;8.710;2022-12-11T21:33:22;26.92;;;20.08;;
40953;SDS011;26686;50.130;8.710;2022-12-11T21:38:24;22.52;;;18.20;;
40953;SDS011;26686;50.130;8.710;2022-12-11T21:43:26;24.25;;;19.95;;
40953;SDS011;26686;50.130;8.710;2022-12-11T21:48:27;22.98;;;19.05;;
40953;SDS011;26686;50.130;8.710;2022-12-11T21:53:29;26.95;;;20.50;;
40953;SDS011;26686;50.130;8.710;2022-12-11T21:58:30;28.20;;;21.38;;
40953;SDS011;26686;50.130;8.710;2022-12-11T22:03:32;29.08;;;22.50;;
40953;SDS011;26686;50.130;8.710;2022-12-11T22:08:33;27.88;;;21.17;;
40953;SDS011;26686;50.130;8.710;2022-12-11T22:13:34;30.48;;;23.42;;
40953;SDS011;26686;50.130;8.710;2022-12-11T22:18:36;30.60;;;23.83;;
40953;SDS011;26686;50.130;8.710;2022-12-11T22:23:38;27.73;;;21.73;;
40953;SDS011;26686;50.130;8.710;2022-12-11T22:28:41;30.38;;;23.73;;
40953;SDS011;26686;50.130;8.710;2022-12-11T22:33:42;30.70;;;22.85;;
40953;SDS011;26686;50.130;8.710;2022-12-11T22:38:44;28.50;;;21.45;;
40953;SDS011;26686;50.130;8.710;2022-12-11T22:43:47;31.52;;;21.85;;
40953;SDS011;26686;50.130;8.710;2022-12-11T22:48:49;29.90;;;22.63;;
40953;SDS011;26686;50.130;8.710;2022-12-11T22:53:51;31.35;;;23.33;;
40953;SDS011;26686;50.130;8.710;2022-12-11T22:58:52;33.58;;;23.08;;
40953;SDS011;26686;50.130;8.710;2022-12-11T23:03:54;32.38;;;23.27;;
40953;SDS011;26686;50.130;8.710;2022-12-11T23:08:56;31.00;;;23.27;;
40953;SDS011;26686;50.130;8.710;2022-12-11T23:13:59;32.50;;;23.35;;
40953;SDS011;26686;50.130;8.710;2022-12-11T23:19:01;32.50;;;23.40;;
40953;SDS011;26686;50.130;8.710;2022-12-11T23:24:04;30.65;;;23.30;;
40953;SDS011;26686;50.130;8.710;2022-12-11T23:29:06;33.58;;;24.25;;
40953;SDS011;26686;50.130;8.710;2022-12-11T23:34:08;30.02;;;22.73;;
40953;SDS011;26686;50.130;8.710;2022-12-11T23:39:09;31.40;;;23.70;;
40953;SDS011;26686;50.130;8.710;2022-12-11T23:44:11;29.13;;;22.48;;
40953;SDS011;26686;50.130;8.710;2022-12-11T23:49:12;31.30;;;22.90;;
40953;SDS011;26686;50.130;8.710;2022-12-11T23:54:14;31.33;;;23.52;;
40953;SDS011;26686;50.130;8.710;2022-12-11T23:59:15;31.77;;;24.65;;
